This is the latest recevied weather packets stored in our database for station/object Sauldorf. If no packets are shown the sender has not sent any weather packets the latest 1 day(s).
| Time | Temp. | Humidity | Pressure | Rain* | Wind** | Luminosity | Snow |
|---|---|---|---|---|---|---|---|
| 1836273905 | 12.78° C | 97% | 1021.4 hPa | 0 mm | 1.34 m/s, 271° | - | - |
| 1778022129 | 9.44° C | 94% | 1008.4 hPa | 0 mm | 0.89 m/s, 276° | - | - |
| 1778020330 | 9.44° C | 94% | 1008.6 hPa | 0 mm | 1.34 m/s, 276° | - | - |
| 1778016731 | 9.44° C | 93% | 1008.8 hPa | 1.52 mm | 3.13 m/s, 248° | - | - |
| 1778014935 | 9.44° C | 93% | 1008.8 hPa | 1.52 mm | 2.68 m/s, 227° | - | - |
| 1778013129 | 10° C | 93% | 1008.7 hPa | 1.52 mm | 4.47 m/s, 234° | - | - |
| 1778011330 | 10° C | 93% | 1008.3 hPa | 1.52 mm | 4.47 m/s, 237° | - | - |
| 1778009529 | 10.56° C | 93% | 1008.3 hPa | 1.52 mm | 4.92 m/s, 219° | - | - |
| 1778007735 | 11.11° C | 92% | 1007.7 hPa | 1.52 mm | 5.81 m/s, 227° | - | - |
| 1778005932 | 12.22° C | 89% | 1007.3 hPa | 1.52 mm | 4.47 m/s, 200° | - | - |
| 1778004131 | 12.78° C | 84% | 1007.1 hPa | 1.52 mm | 4.02 m/s, 240° | - | - |
| 1778002330 | 13.89° C | 80% | 1007.1 hPa | 1.27 mm | 6.26 m/s, 238° | - | - |
| 1778000530 | 14.44° C | 78% | 1006.9 hPa | 1.27 mm | 6.71 m/s, 243° | - | - |
| 1777998731 | 15.56° C | 75% | 1006.8 hPa | 1.27 mm | 8.05 m/s, 242° | - | - |
| 1777995130 | 17.22° C | 69% | 1006.5 hPa | 1.27 mm | 5.36 m/s, 246° | - | - |
| 1777993336 | 17.22° C | 71% | 1006.4 hPa | 1.27 mm | 2.24 m/s, 266° | - | - |
| 1777991532 | 16.11° C | 69% | 1006.6 hPa | 1.27 mm | 1.79 m/s, 213° | - | - |
| 1777989730 | 15° C | 74% | 1006.6 hPa | 1.27 mm | 3.13 m/s, 83° | - | - |
| 1777987930 | 14.44° C | 77% | 1006.8 hPa | 1.27 mm | 2.24 m/s, 30° | - | - |
| 1777986130 | 13.33° C | 85% | 1006.7 hPa | 1.27 mm | 5.36 m/s, 355° | - | - |
| 1777984330 | 13.33° C | 85% | 1007.2 hPa | 1.02 mm | 3.58 m/s, 34° | - | - |
| 1777982530 | 13.33° C | 85% | 1007.4 hPa | 1.02 mm | 4.02 m/s, 327° | - | - |
| 1777980730 | 13.33° C | 83% | 1007.6 hPa | 0.51 mm | 1.79 m/s, 281° | - | - |
| 1777978931 | 13.89° C | 85% | 1007 hPa | 0.25 mm | 4.02 m/s, 310° | - | - |
| 1777977131 | 13.33° C | 83% | 1007 hPa | 0 mm | 3.58 m/s, 292° | - | - |
* Rain since midnight (hover to see other rain measurements)
** Current wind speed in m/s (hover to see current wind gust speed)